createdAt,value
2023-04-21T00:01:45.195Z,31.80
2023-04-21T00:04:11.921Z,32.95
2023-04-21T00:06:38.750Z,29.23
2023-04-21T00:09:05.288Z,26.50
2023-04-21T00:11:31.793Z,28.65
2023-04-21T00:13:58.322Z,30.25
2023-04-21T00:16:24.927Z,30.80
2023-04-21T00:18:51.412Z,28.92
2023-04-21T00:21:17.993Z,33.63
2023-04-21T00:23:46.636Z,31.27
2023-04-21T00:26:13.200Z,31.88
2023-04-21T00:28:39.744Z,30.60
2023-04-21T00:31:06.230Z,29.42
2023-04-21T00:33:32.793Z,31.70
2023-04-21T00:35:59.398Z,31.40
2023-04-21T00:38:26.037Z,27.42
2023-04-21T00:40:52.512Z,26.98
2023-04-21T00:43:19.104Z,30.98
2023-04-21T00:45:46.059Z,31.08
2023-04-21T00:48:12.680Z,33.60
2023-04-21T00:50:39.482Z,28.30
2023-04-21T00:53:06.307Z,31.17
2023-04-21T00:55:32.991Z,32.13
2023-04-21T00:58:00.696Z,38.50
2023-04-21T01:00:27.376Z,35.92
2023-04-21T01:02:54.239Z,42.95
2023-04-21T01:05:20.995Z,40.17
2023-04-21T01:07:47.611Z,33.58
2023-04-21T01:10:14.324Z,34.92
2023-04-21T01:12:47.854Z,33.67
2023-04-21T01:15:16.558Z,37.30
2023-04-21T01:17:43.627Z,39.28
2023-04-21T01:20:12.871Z,40.38
2023-04-21T01:22:40.735Z,40.72
2023-04-21T01:25:08.473Z,45.08
2023-04-21T01:27:35.199Z,50.55
2023-04-21T01:30:01.926Z,44.58
2023-04-21T01:32:30.333Z,42.22
2023-04-21T01:34:58.812Z,44.85
2023-04-21T01:37:29.304Z,42.03
2023-04-21T01:39:57.704Z,50.40
2023-04-21T01:42:26.715Z,45.05
2023-04-21T01:44:53.864Z,42.15
2023-04-21T01:47:24.370Z,46.28
2023-04-21T01:49:51.577Z,45.47
2023-04-21T01:52:18.101Z,46.42
2023-04-21T01:54:44.696Z,45.90
2023-04-21T01:57:11.324Z,43.78
2023-04-21T01:59:38.116Z,46.13
2023-04-21T02:02:04.817Z,43.75
2023-04-21T02:04:31.677Z,41.15
2023-04-21T02:06:58.271Z,41.80
2023-04-21T02:09:24.813Z,45.17
2023-04-21T02:11:51.356Z,43.72
2023-04-21T02:14:17.966Z,40.15
2023-04-21T02:16:44.534Z,40.88
2023-04-21T02:19:11.133Z,44.05
2023-04-21T02:21:37.688Z,44.58
2023-04-21T02:24:04.525Z,41.13
2023-04-21T02:26:31.064Z,42.60
2023-04-21T02:28:57.595Z,44.72
2023-04-21T02:31:24.357Z,40.55
2023-04-21T02:33:50.897Z,45.35
2023-04-21T02:36:17.427Z,48.58
2023-04-21T02:38:43.962Z,44.17
2023-04-21T02:41:10.474Z,43.25
2023-04-21T02:43:37.032Z,47.38
2023-04-21T02:46:07.345Z,44.58
2023-04-21T02:48:37.154Z,39.63
2023-04-21T02:51:03.884Z,43.35
2023-04-21T02:53:30.724Z,40.63
2023-04-21T02:55:57.302Z,44.85
2023-04-21T02:58:23.789Z,42.83
2023-04-21T03:00:50.359Z,45.03
2023-04-21T03:03:17.129Z,48.53
2023-04-21T03:05:43.729Z,46.03
2023-04-21T03:08:10.241Z,44.08
2023-04-21T03:10:38.953Z,47.30
2023-04-21T03:13:05.539Z,42.63
2023-04-21T03:15:32.077Z,44.30
2023-04-21T03:17:58.692Z,48.10
2023-04-21T03:20:25.235Z,45.10
2023-04-21T03:22:53.624Z,49.85
2023-04-21T03:25:20.296Z,47.70
2023-04-21T03:27:46.832Z,49.88
2023-04-21T03:30:13.438Z,49.00
2023-04-21T03:32:40.051Z,50.25
2023-04-21T03:35:06.688Z,49.38
2023-04-21T03:37:33.161Z,50.60
2023-04-21T03:39:59.670Z,54.30
2023-04-21T03:42:26.224Z,50.67
2023-04-21T03:44:52.718Z,50.33
2023-04-21T03:47:19.194Z,52.58
2023-04-21T03:49:45.663Z,54.17
2023-04-21T03:52:12.170Z,50.97
2023-04-21T03:54:38.692Z,51.63
2023-04-21T03:57:05.222Z,50.58
2023-04-21T03:59:31.743Z,48.50
2023-04-21T04:01:58.351Z,45.45
2023-04-21T04:04:25.187Z,47.45
2023-04-21T04:06:51.869Z,48.55
2023-04-21T04:09:18.681Z,48.50
2023-04-21T04:11:45.350Z,49.20
2023-04-21T04:14:11.906Z,47.72
2023-04-21T04:16:38.422Z,48.20
2023-04-21T04:19:04.959Z,51.50
2023-04-21T04:21:31.436Z,50.50
2023-04-21T04:23:58.025Z,54.10
2023-04-21T04:26:25.411Z,55.83
2023-04-21T04:28:54.826Z,48.35
2023-04-21T04:31:21.782Z,51.20
2023-04-21T04:33:48.298Z,66.30
2023-04-21T04:36:14.798Z,53.25
2023-04-21T04:38:41.283Z,50.22
2023-04-21T04:41:07.779Z,57.28
2023-04-21T04:43:34.458Z,58.40
2023-04-21T04:46:01.080Z,57.17
2023-04-21T04:48:27.543Z,54.40
2023-04-21T04:50:54.132Z,56.58
2023-04-21T04:53:20.732Z,56.05
2023-04-21T04:55:47.895Z,61.92
2023-04-21T04:58:14.478Z,61.05
2023-04-21T05:00:43.140Z,60.13
2023-04-21T05:03:09.750Z,64.63
2023-04-21T05:05:36.391Z,60.90
2023-04-21T05:08:02.964Z,62.17
2023-04-21T05:10:29.552Z,55.60
2023-04-21T05:12:56.072Z,62.70
2023-04-21T05:15:22.619Z,58.33
2023-04-21T05:17:49.183Z,58.00
2023-04-21T05:20:15.866Z,54.88
2023-04-21T05:22:42.367Z,58.60
2023-04-21T05:25:10.934Z,56.80
2023-04-21T05:27:37.496Z,50.90
2023-04-21T05:30:04.332Z,52.95
2023-04-21T05:32:30.984Z,60.53
2023-04-21T05:34:57.670Z,56.45
2023-04-21T05:37:24.177Z,51.25
2023-04-21T05:39:51.525Z,49.92
2023-04-21T05:42:17.983Z,59.35
2023-04-21T05:44:44.496Z,56.60
2023-04-21T05:47:11.026Z,61.08
2023-04-21T05:49:37.576Z,53.22
2023-04-21T05:52:04.194Z,56.15
2023-04-21T05:54:30.690Z,58.47
2023-04-21T05:56:57.204Z,51.85
2023-04-21T05:59:23.831Z,50.25
2023-04-21T06:01:50.307Z,52.58
2023-04-21T06:04:17.039Z,46.50
2023-04-21T06:06:43.689Z,50.17
2023-04-21T06:09:10.193Z,43.55
2023-04-21T06:11:36.700Z,47.83
2023-04-21T06:14:03.228Z,55.17
2023-04-21T06:16:29.812Z,51.25
2023-04-21T06:18:56.405Z,45.08
2023-04-21T06:21:22.891Z,44.92
2023-04-21T06:23:49.379Z,44.47
2023-04-21T06:26:15.924Z,42.58
2023-04-21T06:28:42.427Z,42.70
2023-04-21T06:31:09.242Z,43.90
2023-04-21T06:33:35.866Z,45.75
2023-04-21T06:36:02.366Z,42.53
2023-04-21T06:38:28.861Z,39.75
2023-04-21T06:40:55.722Z,39.70
2023-04-21T06:43:22.235Z,41.42
2023-04-21T06:45:48.722Z,40.63
2023-04-21T06:48:15.255Z,38.55
2023-04-21T06:50:41.784Z,38.28
2023-04-21T06:53:10.331Z,36.72
2023-04-21T06:55:36.902Z,34.58
2023-04-21T06:58:03.426Z,35.17
2023-04-21T07:00:29.910Z,28.88
2023-04-21T07:02:56.455Z,31.83
2023-04-21T07:05:23.105Z,27.80
2023-04-21T07:07:49.623Z,30.70
2023-04-21T07:10:16.166Z,31.40
2023-04-21T07:12:42.653Z,31.98
2023-04-21T07:15:09.672Z,28.95
2023-04-21T07:17:36.264Z,24.15
2023-04-21T07:20:03.012Z,28.88
2023-04-21T07:22:29.560Z,26.60
2023-04-21T07:24:56.059Z,24.00
2023-04-21T07:27:22.639Z,22.95
2023-04-21T07:29:49.193Z,22.40
2023-04-21T07:32:15.736Z,22.90
2023-04-21T07:34:42.327Z,21.55
2023-04-21T07:37:09.142Z,19.95
2023-04-21T07:39:35.678Z,19.10
2023-04-21T07:42:02.162Z,24.40
2023-04-21T07:44:28.695Z,22.92
2023-04-21T07:46:55.316Z,24.80
2023-04-21T07:49:21.961Z,24.23
2023-04-21T07:51:48.541Z,19.48
2023-04-21T07:54:15.148Z,22.55
2023-04-21T07:56:41.680Z,17.80
2023-04-21T07:59:08.331Z,20.40
2023-04-21T08:01:34.843Z,16.73
2023-04-21T08:04:01.625Z,15.02
2023-04-21T08:06:28.376Z,16.67
2023-04-21T08:08:54.943Z,15.68
2023-04-21T08:11:22.964Z,14.50
2023-04-21T08:13:49.999Z,15.30
2023-04-21T08:16:16.547Z,15.20
2023-04-21T08:18:43.114Z,15.25
2023-04-21T08:21:09.651Z,14.18
2023-04-21T08:23:36.175Z,16.48
2023-04-21T08:26:03.013Z,16.15
2023-04-21T08:28:29.549Z,14.57
2023-04-21T08:30:56.074Z,13.68
2023-04-21T08:33:22.723Z,16.70
2023-04-21T08:36:02.495Z,15.27
2023-04-21T08:38:32.302Z,15.07
2023-04-21T08:40:59.871Z,13.85
2023-04-21T08:43:28.535Z,13.32
2023-04-21T08:45:55.637Z,13.25
2023-04-21T08:48:23.174Z,16.20
2023-04-21T08:50:50.897Z,11.52
2023-04-21T08:53:18.031Z,11.80
2023-04-21T08:55:49.329Z,11.85
2023-04-21T08:58:20.781Z,13.02
2023-04-21T09:00:47.446Z,11.57
2023-04-21T09:03:25.108Z,11.73
2023-04-21T09:06:04.856Z,11.43
2023-04-21T09:08:33.027Z,12.02
2023-04-21T09:11:01.075Z,11.10
2023-04-21T09:13:35.295Z,11.40
2023-04-21T09:16:15.051Z,10.65
2023-04-21T09:18:41.621Z,12.32
2023-04-21T09:21:13.809Z,11.68
2023-04-21T09:23:46.912Z,11.57
2023-04-21T09:26:14.389Z,10.02
2023-04-21T09:28:45.112Z,11.82
2023-04-21T09:31:22.515Z,10.00
2023-04-21T09:36:23.905Z,10.35
2023-04-21T09:39:20.488Z,9.32
2023-04-21T09:41:44.412Z,10.35
2023-04-21T09:44:10.908Z,9.25
2023-04-21T09:46:38.196Z,9.52
2023-04-21T09:49:05.520Z,9.88
2023-04-21T09:52:02.137Z,10.57
2023-04-21T09:54:29.588Z,10.88
2023-04-21T09:57:01.252Z,9.55
2023-04-21T09:59:46.716Z,11.52
2023-04-21T10:02:13.961Z,10.38
2023-04-21T10:04:42.234Z,8.20
2023-04-21T10:07:10.396Z,9.82
2023-04-21T10:09:51.724Z,10.95
2023-04-21T10:14:45.143Z,8.93
2023-04-21T10:17:12.023Z,10.57
2023-04-21T10:19:49.040Z,10.90
2023-04-21T10:22:27.671Z,9.32
2023-04-21T10:24:56.668Z,8.80
2023-04-21T10:27:39.075Z,9.50
2023-04-21T10:30:23.595Z,9.27
2023-04-21T10:33:06.090Z,9.52
2023-04-21T10:35:59.013Z,8.52
2023-04-21T10:38:42.604Z,9.20
2023-04-21T10:44:27.538Z,8.75
2023-04-21T10:48:07.928Z,8.60
2023-04-21T10:50:32.735Z,8.00
2023-04-21T10:53:09.318Z,9.75
2023-04-21T10:55:35.959Z,8.70
2023-04-21T10:58:04.339Z,7.97
2023-04-21T11:00:31.154Z,9.05
2023-04-21T11:03:01.591Z,8.88
2023-04-21T11:05:39.674Z,8.40
2023-04-21T11:08:08.896Z,7.47
2023-04-21T11:10:42.972Z,10.60
2023-04-21T11:13:09.503Z,7.43
2023-04-21T11:15:36.049Z,7.82
2023-04-21T11:18:02.645Z,8.15
2023-04-21T11:20:29.340Z,7.15
2023-04-21T11:22:58.827Z,7.45
2023-04-21T11:25:25.473Z,7.72
2023-04-21T11:27:55.748Z,7.45
2023-04-21T11:30:32.305Z,7.57
2023-04-21T11:32:58.853Z,8.23
2023-04-21T11:35:25.512Z,7.72
2023-04-21T11:37:52.041Z,7.28
2023-04-21T11:40:19.182Z,7.40
2023-04-21T11:42:46.195Z,8.45
2023-04-21T11:45:21.893Z,7.15
2023-04-21T11:47:49.146Z,7.13
2023-04-21T11:50:30.861Z,7.30
2023-04-21T11:52:57.412Z,8.85
2023-04-21T11:55:23.949Z,11.43
2023-04-21T11:57:50.533Z,10.98
2023-04-21T12:00:17.701Z,8.27
2023-04-21T12:02:44.498Z,9.13
2023-04-21T12:05:12.920Z,9.60
2023-04-21T12:07:42.763Z,7.55
2023-04-21T12:10:17.452Z,8.38
2023-04-21T12:12:44.987Z,10.95
2023-04-21T12:15:13.050Z,6.85
2023-04-21T12:17:47.313Z,9.35
2023-04-21T12:20:18.310Z,9.02
2023-04-21T12:22:45.265Z,9.77
2023-04-21T12:25:11.854Z,9.43
2023-04-21T12:27:47.159Z,10.77
2023-04-21T12:30:14.015Z,10.02
2023-04-21T12:32:40.543Z,8.98
2023-04-21T12:35:07.286Z,11.43
2023-04-21T12:37:33.781Z,11.00
2023-04-21T12:40:00.303Z,10.10
2023-04-21T12:42:26.826Z,10.30
2023-04-21T12:44:53.344Z,11.82
2023-04-21T12:47:19.884Z,11.18
2023-04-21T12:49:46.506Z,10.65
2023-04-21T12:52:12.984Z,12.25
2023-04-21T12:54:39.550Z,11.85
2023-04-21T12:57:06.473Z,12.55
2023-04-21T12:59:33.220Z,10.93
2023-04-21T13:01:59.938Z,11.73
2023-04-21T13:04:26.767Z,12.63
2023-04-21T13:06:53.569Z,13.52
2023-04-21T13:09:20.189Z,9.77
2023-04-21T13:11:46.876Z,9.77
2023-04-21T13:14:13.404Z,9.40
2023-04-21T13:16:40.756Z,9.98
2023-04-21T13:19:07.277Z,9.23
2023-04-21T13:21:33.801Z,11.10
2023-04-21T13:24:00.481Z,10.57
2023-04-21T13:26:27.053Z,9.98
2023-04-21T13:28:53.748Z,9.48
2023-04-21T13:31:20.337Z,9.32
2023-04-21T13:33:46.930Z,7.78
2023-04-21T13:36:13.443Z,11.00
2023-04-21T13:38:40.198Z,7.53
2023-04-21T13:41:06.780Z,7.82
2023-04-21T13:43:33.333Z,7.35
2023-04-21T13:46:00.034Z,7.95
2023-04-21T13:48:26.673Z,7.82
2023-04-21T13:50:53.172Z,7.43
2023-04-21T13:53:21.481Z,6.43
2023-04-21T13:55:48.409Z,6.15
2023-04-21T13:58:16.102Z,7.25
2023-04-21T14:00:42.838Z,7.18
2023-04-21T14:03:10.062Z,7.85
2023-04-21T14:05:36.974Z,6.63
2023-04-21T14:08:03.709Z,5.80
2023-04-21T14:10:30.283Z,5.97
2023-04-21T14:12:56.880Z,5.28
2023-04-21T14:15:23.518Z,5.78
2023-04-21T14:17:50.113Z,5.00
2023-04-21T14:20:16.653Z,5.35
2023-04-21T14:22:43.223Z,4.75
2023-04-21T14:25:09.905Z,4.70
2023-04-21T14:27:36.514Z,5.25
2023-04-21T14:30:03.378Z,5.07
2023-04-21T14:32:30.132Z,4.75
2023-04-21T14:34:56.827Z,4.82
2023-04-21T14:37:23.456Z,7.28
2023-04-21T14:39:50.087Z,5.20
2023-04-21T14:42:16.574Z,5.22
2023-04-21T14:44:43.107Z,5.10
2023-04-21T14:47:10.911Z,5.78
2023-04-21T14:49:40.790Z,6.88
2023-04-21T14:52:07.517Z,4.78
2023-04-21T14:54:34.295Z,6.38
2023-04-21T14:57:17.522Z,5.28
2023-04-21T14:59:45.967Z,4.65
2023-04-21T15:02:12.738Z,5.20
2023-04-21T15:04:39.584Z,4.68
2023-04-21T15:07:06.158Z,6.07
2023-04-21T15:09:32.998Z,4.90
2023-04-21T15:11:59.776Z,4.88
2023-04-21T15:14:26.297Z,4.60
2023-04-21T15:16:52.979Z,4.72
2023-04-21T15:19:19.534Z,6.47
2023-04-21T15:21:46.106Z,7.70
2023-04-21T15:24:12.665Z,5.43
2023-04-21T15:26:40.263Z,4.25
2023-04-21T15:29:07.006Z,6.80
2023-04-21T15:31:33.786Z,4.50
2023-04-21T15:34:00.329Z,6.53
2023-04-21T15:36:26.864Z,5.18
2023-04-21T15:38:53.400Z,5.72
2023-04-21T15:41:19.971Z,5.07
2023-04-21T15:43:46.475Z,5.97
2023-04-21T15:46:13.157Z,6.35
2023-04-21T15:48:40.519Z,4.45
2023-04-21T15:51:10.780Z,6.78
2023-04-21T15:53:37.385Z,6.43
2023-04-21T15:56:04.664Z,5.78
2023-04-21T15:58:31.184Z,9.05
2023-04-21T16:00:57.873Z,5.68
2023-04-21T16:03:24.653Z,3.88
2023-04-21T16:05:51.429Z,4.22
2023-04-21T16:08:18.109Z,3.90
2023-04-21T16:10:45.046Z,3.83
2023-04-21T16:13:11.662Z,3.38
2023-04-21T16:15:38.275Z,4.13
2023-04-21T16:18:04.873Z,4.05
2023-04-21T16:20:32.013Z,4.82
2023-04-21T16:22:58.971Z,5.35
2023-04-21T16:25:25.639Z,3.35
2023-04-21T16:27:52.595Z,4.13
2023-04-21T16:30:19.166Z,6.43
2023-04-21T16:32:45.786Z,3.38
2023-04-21T16:35:12.376Z,4.72
2023-04-21T16:37:39.765Z,3.05
2023-04-21T16:40:07.706Z,3.83
2023-04-21T16:42:34.301Z,3.13
2023-04-21T16:45:00.861Z,3.92
2023-04-21T16:47:27.479Z,2.80
2023-04-21T16:49:54.122Z,3.72
2023-04-21T16:52:20.697Z,3.25
2023-04-21T16:54:47.220Z,4.13
2023-04-21T16:57:13.788Z,3.95
2023-04-21T16:59:40.326Z,4.78
2023-04-21T17:02:06.963Z,3.78
2023-04-21T17:04:33.595Z,3.50
2023-04-21T17:07:00.132Z,3.60
2023-04-21T17:09:26.613Z,3.97
2023-04-21T17:11:53.279Z,3.88
2023-04-21T17:14:19.796Z,3.92
2023-04-21T17:16:46.447Z,4.75
2023-04-21T17:19:12.931Z,3.83
2023-04-21T17:21:39.475Z,3.47
2023-04-21T17:24:06.062Z,5.65
2023-04-21T17:26:32.619Z,3.40
2023-04-21T17:28:59.532Z,3.22
2023-04-21T17:31:26.146Z,2.92
2023-04-21T17:33:52.784Z,4.32
2023-04-21T17:36:19.414Z,4.43
2023-04-21T17:38:45.945Z,4.10
2023-04-21T17:41:12.484Z,3.58
2023-04-21T17:43:39.035Z,5.20
2023-04-21T17:46:06.125Z,3.08
2023-04-21T17:48:32.844Z,3.13
2023-04-21T17:50:59.487Z,5.00
2023-04-21T17:53:26.004Z,5.47
2023-04-21T17:55:52.780Z,6.10
2023-04-21T17:58:19.319Z,5.13
2023-04-21T18:00:45.808Z,3.95
2023-04-21T18:03:12.436Z,5.68
2023-04-21T18:05:39.407Z,5.38
2023-04-21T18:08:06.090Z,4.35
2023-04-21T18:10:32.674Z,4.50
2023-04-21T18:12:59.188Z,3.58
2023-04-21T18:15:25.746Z,3.20
2023-04-21T18:17:52.344Z,4.93
2023-04-21T18:20:19.026Z,3.63
2023-04-21T18:22:45.636Z,4.35
2023-04-21T18:25:12.301Z,5.68
2023-04-21T18:27:39.383Z,4.10
2023-04-21T18:30:07.578Z,5.90
2023-04-21T18:32:35.300Z,4.85
2023-04-21T18:35:02.275Z,3.83
2023-04-21T18:37:28.791Z,3.97
2023-04-21T18:39:55.327Z,3.10
2023-04-21T18:42:21.930Z,3.85
2023-04-21T18:44:48.476Z,3.05
2023-04-21T18:47:15.071Z,3.40
2023-04-21T18:49:41.700Z,2.88
2023-04-21T18:52:08.782Z,3.20
2023-04-21T18:54:35.519Z,2.15
2023-04-21T18:57:03.464Z,2.92
2023-04-21T18:59:30.187Z,3.92
2023-04-21T19:01:56.861Z,3.47
2023-04-21T19:04:23.677Z,3.22
2023-04-21T19:06:50.300Z,4.82
2023-04-21T19:09:16.793Z,3.45
2023-04-21T19:11:43.400Z,4.20
2023-04-21T19:14:10.017Z,3.20
2023-04-21T19:16:36.783Z,3.38
2023-04-21T19:19:03.406Z,2.47
2023-04-21T19:21:29.927Z,2.58
2023-04-21T19:23:57.931Z,3.15
2023-04-21T19:26:24.941Z,3.03
2023-04-21T19:28:51.486Z,2.72
2023-04-21T19:31:18.060Z,2.65
2023-04-21T19:33:44.809Z,4.00
2023-04-21T19:36:11.416Z,3.42
2023-04-21T19:38:37.977Z,3.25
2023-04-21T19:41:04.490Z,3.13
2023-04-21T19:43:30.990Z,3.78
2023-04-21T19:45:57.615Z,4.00
2023-04-21T19:48:24.436Z,3.13
2023-04-21T19:50:51.170Z,3.53
2023-04-21T19:53:17.697Z,3.92
2023-04-21T19:55:44.464Z,3.47
2023-04-21T19:58:11.235Z,4.60
2023-04-21T20:00:37.930Z,3.15
2023-04-21T20:03:06.145Z,4.05
2023-04-21T20:05:33.410Z,3.25
2023-04-21T20:08:00.013Z,3.70
2023-04-21T20:10:26.617Z,4.60
2023-04-21T20:12:53.161Z,3.65
2023-04-21T20:15:19.725Z,4.20
2023-04-21T20:17:46.250Z,3.95
2023-04-21T20:20:13.365Z,3.95
2023-04-21T20:22:40.108Z,4.93
2023-04-21T20:25:06.994Z,4.63
2023-04-21T20:27:33.921Z,4.20
2023-04-21T20:30:00.411Z,5.47
2023-04-21T20:32:27.002Z,4.20
2023-04-21T20:34:53.642Z,4.35
2023-04-21T20:37:20.399Z,4.60
2023-04-21T20:39:46.964Z,5.30
2023-04-21T20:42:13.976Z,4.75
2023-04-21T20:44:41.495Z,3.33
2023-04-21T20:47:08.231Z,4.75
2023-04-21T20:49:35.138Z,3.63
2023-04-21T20:52:02.360Z,5.75
2023-04-21T20:54:29.102Z,5.10
2023-04-21T20:56:55.643Z,4.72
2023-04-21T20:59:22.685Z,5.85
2023-04-21T21:01:49.292Z,6.75
2023-04-21T21:04:16.168Z,4.90
2023-04-21T21:06:43.048Z,5.25
2023-04-21T21:09:09.604Z,5.43
2023-04-21T21:11:36.367Z,5.15
2023-04-21T21:14:02.886Z,4.13
2023-04-21T21:16:30.226Z,4.97
2023-04-21T21:18:56.761Z,4.80
2023-04-21T21:21:23.886Z,4.53
2023-04-21T21:23:50.474Z,5.13
2023-04-21T21:26:17.142Z,6.30
2023-04-21T21:28:43.706Z,5.90
2023-04-21T21:31:10.222Z,7.10
2023-04-21T21:33:36.750Z,6.15
2023-04-21T21:36:03.501Z,4.85
2023-04-21T21:38:29.988Z,4.70
2023-04-21T21:40:56.474Z,5.82
2023-04-21T21:43:23.000Z,5.57
2023-04-21T21:45:49.600Z,5.07
2023-04-21T21:48:16.269Z,6.25
2023-04-21T21:50:43.291Z,5.35
2023-04-21T21:53:09.962Z,4.70
2023-04-21T21:55:36.563Z,5.10
2023-04-21T21:58:03.613Z,4.32
2023-04-21T22:00:30.478Z,4.40
2023-04-21T22:02:58.249Z,5.75
2023-04-21T22:05:24.994Z,7.07
2023-04-21T22:07:51.540Z,6.13
2023-04-21T22:10:18.098Z,8.88
2023-04-21T22:12:44.597Z,7.88
2023-04-21T22:15:11.398Z,6.93
2023-04-21T22:17:38.083Z,6.38
2023-04-21T22:20:05.262Z,10.52
2023-04-21T22:22:31.777Z,9.68
2023-04-21T22:24:58.295Z,7.10
2023-04-21T22:27:24.879Z,9.52
2023-04-21T22:29:51.435Z,9.02
2023-04-21T22:32:17.947Z,13.02
2023-04-21T22:34:44.463Z,7.72
2023-04-21T22:37:10.996Z,8.95
2023-04-21T22:39:37.683Z,9.05
2023-04-21T22:42:04.501Z,9.60
2023-04-21T22:44:31.030Z,8.95
2023-04-21T22:46:57.626Z,8.48
2023-04-21T22:49:24.221Z,8.65
2023-04-21T22:51:50.746Z,8.15
2023-04-21T22:54:17.214Z,10.18
2023-04-21T22:56:43.759Z,8.82
2023-04-21T22:59:10.262Z,8.50
2023-04-21T23:01:36.794Z,9.95
2023-04-21T23:04:03.568Z,9.68
2023-04-21T23:06:30.246Z,8.45
2023-04-21T23:08:56.758Z,9.20
2023-04-21T23:11:23.297Z,10.70
2023-04-21T23:13:49.859Z,9.45
2023-04-21T23:16:16.465Z,7.13
2023-04-21T23:18:43.090Z,7.25
2023-04-21T23:21:09.689Z,8.13
2023-04-21T23:23:36.217Z,9.27
2023-04-21T23:26:02.748Z,9.93
2023-04-21T23:28:29.266Z,7.13
2023-04-21T23:30:55.843Z,7.22
2023-04-21T23:33:22.450Z,7.68
2023-04-21T23:35:49.054Z,8.60
2023-04-21T23:38:15.564Z,7.15
2023-04-21T23:40:42.159Z,7.15
2023-04-21T23:43:08.726Z,7.60
2023-04-21T23:45:35.381Z,8.07
2023-04-21T23:48:02.004Z,7.13
2023-04-21T23:50:28.625Z,7.00
2023-04-21T23:52:55.382Z,9.10
2023-04-21T23:55:21.882Z,6.35
2023-04-21T23:57:48.361Z,6.28
